Time;durP1;ratioP1;P1;durP2;ratioP2;P2;SDS_P1;SDS_P2;PMS_P1;PMS_P2;Temp;Humidity;BMP_temperature;BMP_pressure;BME280_temperature;BME280_humidity;BME280_pressure;Samples;Min_cycle;Max_cycle;Signal;HPM_P1;HPM_P2
2021/12/29 00:01:07;;;;;;;8.10;3.30;;;;;;;8.68;100.00;99924.56;5012153;28;20038;-45
2021/12/29 00:03:35;;;;;;;9.05;3.42;;;;;;;8.68;100.00;99935.41;5013603;28;20048;-48
2021/12/29 00:06:04;;;;;;;8.20;3.03;;;;;;;8.66;100.00;99935.72;5001870;28;20049;-46
2021/12/29 00:08:32;;;;;;;6.93;2.90;;;;;;;8.68;100.00;99951.72;5005687;28;20500;-46
2021/12/29 00:10:59;;;;;;;6.75;3.20;;;;;;;8.67;100.00;99950.91;5013441;28;20460;-45
2021/12/29 00:13:27;;;;;;;6.90;3.08;;;;;;;8.67;100.00;99952.81;5013469;28;20062;-44
2021/12/29 00:16:00;;;;;;;8.07;3.17;;;;;;;8.66;100.00;99960.16;5011868;28;20052;-45
2021/12/29 00:19:04;;;;;;;8.73;3.67;;;;;;;8.64;100.00;99977.81;4932804;29;20178;-45
2021/12/29 00:21:37;;;;;;;8.80;3.92;;;;;;;8.65;100.00;99991.09;4933571;29;20048;-46
2021/12/29 00:24:09;;;;;;;7.75;3.60;;;;;;;8.65;100.00;100001.16;4933293;29;20047;-44
2021/12/29 00:26:37;;;;;;;9.20;3.60;;;;;;;8.66;100.00;100006.31;4933178;29;20051;-44
2021/12/29 00:29:07;;;;;;;7.63;3.40;;;;;;;8.66;100.00;100014.47;4912242;29;20209;-44
2021/12/29 00:31:35;;;;;;;10.95;3.95;;;;;;;8.64;100.00;100021.25;4913606;29;20071;-45
2021/12/29 00:34:40;;;;;;;9.88;3.95;;;;;;;8.64;100.00;100024.78;4932960;29;20198;-44
2021/12/29 00:37:26;;;;;;;8.25;3.78;;;;;;;8.64;100.00;100024.78;4998270;28;20045;-43
2021/12/29 00:40:19;;;;;;;10.48;4.18;;;;;;;8.66;100.00;100040.78;5010631;28;20042;-45
2021/12/29 00:43:06;;;;;;;9.32;3.95;;;;;;;8.64;100.00;100049.22;5010601;28;20057;-43
2021/12/29 00:45:57;;;;;;;8.02;3.83;;;;;;;8.66;100.00;100051.66;5010713;28;20073;-45
2021/12/29 00:48:34;;;;;;;9.48;4.20;;;;;;;8.65;100.00;100055.47;5010100;28;20044;-47
2021/12/29 00:51:02;;;;;;;7.85;4.15;;;;;;;8.65;100.00;100055.47;5010338;28;20045;-49
2021/12/29 00:53:32;;;;;;;9.57;4.55;;;;;;;8.66;100.00;100057.06;5009697;28;20058;-47
2021/12/29 00:56:00;;;;;;;9.25;4.53;;;;;;;8.65;100.00;100060.91;5009730;28;20049;-51
2021/12/29 00:58:29;;;;;;;12.70;4.72;;;;;;;8.66;100.00;100068.78;5010707;28;20417;-46
2021/12/29 01:00:58;;;;;;;10.70;5.00;;;;;;;8.67;100.00;100075.81;5009373;28;20046;-48
2021/12/29 01:03:27;;;;;;;12.25;4.82;;;;;;;8.68;100.00;100076.63;5010298;28;20045;-50
2021/12/29 01:05:55;;;;;;;11.65;4.43;;;;;;;8.68;100.00;100090.22;5010800;28;20559;-50
2021/12/29 01:08:22;;;;;;;9.93;3.70;;;;;;;8.67;100.00;100099.47;5014274;28;20459;-47
2021/12/29 01:10:50;;;;;;;12.15;4.45;;;;;;;8.67;100.00;100096.75;5013878;28;20459;-43
2021/12/29 01:13:29;;;;;;;9.73;4.22;;;;;;;8.67;100.00;100110.31;5014219;28;20141;-43
2021/12/29 01:16:36;;;;;;;8.57;3.70;;;;;;;8.67;100.00;100107.59;5014135;28;20054;-44
2021/12/29 01:18:58;;;;;;;8.80;3.95;;;;;;;8.67;100.00;100110.31;5005630;28;20046;-44
2021/12/29 01:21:26;;;;;;;7.28;3.83;;;;;;;8.68;100.00;100128.22;5015008;28;20496;-45
2021/12/29 01:23:53;;;;;;;7.93;3.60;;;;;;;8.67;100.00;100130.13;5016271;28;20042;-44
2021/12/29 01:26:24;;;;;;;7.13;3.90;;;;;;;8.68;100.00;100131.78;4998960;28;20392;-48
2021/12/29 01:28:51;;;;;;;7.30;3.80;;;;;;;8.68;100.00;100147.25;5000205;28;20045;-43
2021/12/29 01:31:19;;;;;;;6.55;3.63;;;;;;;8.67;100.00;100151.06;5016451;28;20037;-44
2021/12/29 01:33:47;;;;;;;6.22;3.67;;;;;;;8.66;100.00;100149.41;5016083;28;20125;-44
2021/12/29 01:36:14;;;;;;;5.60;3.50;;;;;;;8.67;100.00;100159.22;5016260;28;20492;-44
2021/12/29 01:38:42;;;;;;;6.07;3.50;;;;;;;8.66;100.00;100168.41;5016164;28;20088;-48
2021/12/29 01:41:10;;;;;;;7.55;3.78;;;;;;;8.67;100.00;100175.50;5009310;28;20050;-46
2021/12/29 01:43:37;;;;;;;6.45;3.67;;;;;;;8.67;100.00;100175.50;5016475;28;20045;-46
2021/12/29 01:46:05;;;;;;;8.98;3.85;;;;;;;8.68;100.00;100185.25;5014361;28;20065;-48
2021/12/29 01:48:33;;;;;;;6.72;3.67;;;;;;;8.68;100.00;100179.84;4997430;28;20038;-46
2021/12/29 01:51:01;;;;;;;10.35;3.92;;;;;;;8.67;100.00;100189.88;4996273;28;20051;-42
2021/12/29 01:53:31;;;;;;;7.53;3.50;;;;;;;8.68;100.00;100196.13;4996086;28;20121;-45
2021/12/29 01:56:01;;;;;;;6.50;3.75;;;;;;;8.67;100.00;100189.06;4996385;28;20052;-49
2021/12/29 01:58:29;;;;;;;7.20;3.47;;;;;;;8.66;100.00;100193.69;4996101;28;20045;-48
2021/12/29 02:00:59;;;;;;;8.02;3.75;;;;;;;8.68;100.00;100201.56;5016045;28;20046;-43
2021/12/29 02:03:27;;;;;;;9.77;4.47;;;;;;;8.67;100.00;100208.09;4996094;28;20042;-46
2021/12/29 02:05:55;;;;;;;9.02;3.80;;;;;;;8.67;100.00;100189.06;4996143;28;20514;-43
2021/12/29 02:08:24;;;;;;;7.85;3.63;;;;;;;8.68;100.00;100202.41;4999818;28;20042;-43
2021/12/29 02:10:55;;;;;;;8.23;4.00;;;;;;;8.69;100.00;100203.22;5015439;28;20045;-43
2021/12/29 02:13:23;;;;;;;7.75;3.50;;;;;;;8.68;100.00;100205.13;5015371;28;20065;-44
2021/12/29 02:15:51;;;;;;;8.30;3.72;;;;;;;8.68;100.00;100220.56;5015205;28;20049;-45
2021/12/29 02:18:20;;;;;;;8.20;3.97;;;;;;;8.69;100.00;100228.47;5015012;28;20042;-43
2021/12/29 02:20:50;;;;;;;7.38;3.40;;;;;;;8.69;100.00;100231.16;5003268;28;20409;-48
2021/12/29 02:23:25;;;;;;;7.20;3.50;;;;;;;8.70;100.00;100237.41;5002711;28;20046;-46
2021/12/29 02:25:55;;;;;;;7.38;3.40;;;;;;;8.72;100.00;100232.53;4995321;28;20054;-48
2021/12/29 02:28:30;;;;;;;7.30;3.42;;;;;;;8.71;100.00;100244.50;4994540;28;20089;-45
2021/12/29 02:30:59;;;;;;;7.70;3.35;;;;;;;8.70;100.00;100238.22;4995376;28;20042;-47
2021/12/29 02:33:30;;;;;;;8.52;4.15;;;;;;;8.70;100.00;100240.13;4995395;28;20053;-47
2021/12/29 02:35:58;;;;;;;8.60;3.53;;;;;;;8.70;100.00;100234.69;4995341;28;20050;-46
2021/12/29 02:38:26;;;;;;;7.40;3.30;;;;;;;8.69;100.00;100244.75;4995428;28;20057;-44
2021/12/29 02:40:59;;;;;;;8.00;3.47;;;;;;;8.69;100.00;100241.22;4996195;28;20047;-45
2021/12/29 02:43:27;;;;;;;7.07;3.28;;;;;;;8.70;100.00;100237.41;5004045;28;20049;-45
2021/12/29 02:45:58;;;;;;;5.90;3.10;;;;;;;8.69;100.00;100244.75;5014235;28;20049;-46
2021/12/29 02:48:29;;;;;;;5.78;2.90;;;;;;;8.68;100.00;100251.28;4995119;28;20444;-45
2021/12/29 02:50:59;;;;;;;8.30;3.20;;;;;;;8.69;100.00;100257.53;4996035;28;20469;-46
2021/12/29 02:53:28;;;;;;;6.15;3.10;;;;;;;8.70;100.00;100248.28;4994576;28;20432;-44
2021/12/29 02:55:58;;;;;;;8.82;3.63;;;;;;;8.70;100.00;100256.44;4995074;28;20146;-43
2021/12/29 02:58:26;;;;;;;7.00;2.95;;;;;;;8.69;100.00;100252.09;4995290;28;20058;-44
2021/12/29 03:00:55;;;;;;;6.20;3.10;;;;;;;8.69;100.00;100254.81;4994905;28;20043;-46
2021/12/29 03:03:25;;;;;;;5.95;3.20;;;;;;;8.69;100.00;100244.75;5007731;28;20042;-44
2021/12/29 03:05:53;;;;;;;8.27;3.13;;;;;;;8.70;100.00;100254.53;4994667;28;20505;-44
2021/12/29 03:08:22;;;;;;;7.57;2.80;;;;;;;8.69;100.00;100263.75;4994962;28;20051;-44
2021/12/29 03:10:52;;;;;;;7.13;3.22;;;;;;;8.69;100.00;100280.06;4994856;28;20108;-45
2021/12/29 03:13:21;;;;;;;6.47;3.00;;;;;;;8.70;100.00;100287.09;5007324;28;20447;-45
2021/12/29 03:15:49;;;;;;;7.22;2.70;;;;;;;8.70;100.00;100292.53;5004602;28;20045;-44
2021/12/29 03:18:17;;;;;;;4.97;2.88;;;;;;;8.71;100.00;100279.81;4994581;28;20381;-45
2021/12/29 03:20:46;;;;;;;6.32;2.92;;;;;;;8.71;100.00;100282.53;4994212;28;20050;-45
2021/12/29 03:23:14;;;;;;;6.65;3.30;;;;;;;8.68;100.00;100299.31;5000901;28;20388;-47
2021/12/29 03:25:42;;;;;;;6.93;2.97;;;;;;;8.67;100.00;100303.94;5011233;28;20046;-45
2021/12/29 03:28:10;;;;;;;4.47;2.97;;;;;;;8.67;100.00;100312.09;4994259;28;20050;-50
2021/12/29 03:30:43;;;;;;;8.73;3.30;;;;;;;8.67;100.00;100314.00;4993536;28;20477;-44
2021/12/29 03:33:12;;;;;;;9.55;3.25;;;;;;;8.66;100.00;100326.78;4995243;28;20090;-47
2021/12/29 03:35:42;;;;;;;6.97;2.92;;;;;;;8.67;100.00;100319.44;4994831;28;20085;-49
2021/12/29 03:38:12;;;;;;;6.75;3.00;;;;;;;8.68;100.00;100315.63;5010096;28;20049;-45
2021/12/29 03:40:41;;;;;;;6.60;2.90;;;;;;;8.68;100.00;100321.06;5008198;28;20043;-49
2021/12/29 03:43:10;;;;;;;5.15;2.90;;;;;;;8.67;100.00;100335.72;4992860;28;20504;-44
2021/12/29 03:45:39;;;;;;;7.40;3.00;;;;;;;8.68;100.00;100331.91;5005601;28;20394;-45
2021/12/29 03:48:09;;;;;;;7.05;3.20;;;;;;;8.69;100.00;100328.13;5000013;28;20042;-44
2021/12/29 03:50:37;;;;;;;4.90;2.97;;;;;;;8.69;100.00;100344.44;5009964;28;20041;-48
2021/12/29 03:53:06;;;;;;;7.25;3.20;;;;;;;8.68;100.00;100348.22;5000209;28;20039;-46
2021/12/29 03:55:34;;;;;;;6.38;3.50;;;;;;;8.67;100.00;100352.84;4998452;28;20512;-44
2021/12/29 03:58:01;;;;;;;6.22;3.60;;;;;;;8.68;100.00;100350.94;4999136;28;20384;-48
2021/12/29 04:00:29;;;;;;;8.52;4.30;;;;;;;8.69;100.00;100352.59;5000990;28;20488;-46
2021/12/29 04:02:56;;;;;;;9.57;3.85;;;;;;;8.69;100.00;100360.72;5000935;28;20496;-46
2021/12/29 04:05:25;;;;;;;7.10;3.88;;;;;;;8.69;100.00;100361.53;4998969;28;20096;-47
2021/12/29 04:07:54;;;;;;;8.70;3.70;;;;;;;8.70;100.00;100365.06;5004498;28;20535;-48
2021/12/29 04:10:22;;;;;;;8.02;4.00;;;;;;;8.69;100.00;100371.59;5000160;28;20045;-47
2021/12/29 04:12:52;;;;;;;9.10;3.60;;;;;;;8.70;100.00;100373.22;5003873;28;20050;-46
2021/12/29 04:15:20;;;;;;;7.70;4.10;;;;;;;8.71;100.00;100369.44;5003445;28;20393;-47
2021/12/29 04:17:49;;;;;;;8.93;4.35;;;;;;;8.69;100.00;100377.84;5011780;28;20046;-48
2021/12/29 04:23:08;;;;;;;9.05;4.30;;;;;;;8.70;100.00;100373.22;5013199;28;20053;-47
2021/12/29 04:25:38;;;;;;;8.52;4.28;;;;;;;8.69;100.00;100368.88;5011736;28;20052;-48
2021/12/29 04:28:09;;;;;;;8.50;3.97;;;;;;;8.70;100.00;100373.22;5013178;28;20050;-46
2021/12/29 04:30:37;;;;;;;8.57;4.50;;;;;;;8.71;100.00;100374.88;4993280;28;20057;-47
2021/12/29 04:33:05;;;;;;;7.28;4.18;;;;;;;8.70;100.00;100376.75;4993537;28;20078;-45
2021/12/29 04:35:33;;;;;;;11.20;4.47;;;;;;;8.70;100.00;100375.94;4995059;28;20685;-47
2021/12/29 04:38:00;;;;;;;8.68;4.15;;;;;;;8.72;100.00;100376.47;5002456;28;20050;-51
2021/12/29 04:40:28;;;;;;;9.38;4.47;;;;;;;8.71;100.00;100391.16;5003647;28;20050;-48
2021/12/29 04:42:55;;;;;;;10.27;4.10;;;;;;;8.71;100.00;100402.03;5000273;28;20038;-47
2021/12/29 04:45:27;;;;;;;9.45;4.20;;;;;;;8.70;100.00;100408.53;4999681;28;20041;-49
2021/12/29 04:47:54;;;;;;;7.50;3.92;;;;;;;8.69;100.00;100412.34;4999083;28;20046;-47
2021/12/29 04:50:28;;;;;;;8.88;4.40;;;;;;;8.69;100.00;100409.63;4997117;28;20057;-47
2021/12/29 04:53:01;;;;;;;8.38;4.32;;;;;;;8.71;100.00;100419.13;5002118;28;20124;-46
2021/12/29 04:55:29;;;;;;;9.80;4.20;;;;;;;8.71;100.00;100419.13;4998727;28;20184;-48
2021/12/29 04:57:58;;;;;;;7.40;4.20;;;;;;;8.72;100.00;100428.91;5002661;28;20133;-47
2021/12/29 05:00:28;;;;;;;7.35;4.28;;;;;;;8.72;100.00;100430.81;4999580;28;20049;-47
2021/12/29 05:02:58;;;;;;;9.98;4.05;;;;;;;8.72;100.00;100437.03;5002595;28;20038;-47
2021/12/29 05:10:47;;;;;;;7.53;4.38;;;;;;;8.73;100.00;100446.00;5000251;28;20049;-45
2021/12/29 05:13:15;;;;;;;9.05;4.63;;;;;;;8.71;100.00;100450.91;4999671;28;20433;-46
2021/12/29 05:15:43;;;;;;;8.07;4.28;;;;;;;8.69;100.00;100447.63;5001180;28;20034;-48
2021/12/29 05:18:11;;;;;;;7.57;4.30;;;;;;;8.68;100.00;100452.25;4997933;28;20096;-46
2021/12/29 05:20:39;;;;;;;9.55;4.80;;;;;;;8.70;100.00;100446.53;5000579;28;20502;-46
2021/12/29 05:23:07;;;;;;;11.07;5.00;;;;;;;8.70;100.00;100438.41;4999403;28;20072;-48
2021/12/29 05:25:34;;;;;;;9.60;4.72;;;;;;;8.69;100.00;100440.31;4996858;28;20062;-48
2021/12/29 05:28:02;;;;;;;9.02;4.95;;;;;;;8.70;100.00;100441.13;5000548;28;20050;-51
2021/12/29 05:30:30;;;;;;;9.82;5.30;;;;;;;8.70;100.00;100443.81;5002436;28;20054;-51
2021/12/29 05:32:58;;;;;;;10.20;4.93;;;;;;;8.68;100.00;100446.00;5003159;28;20061;-50
2021/12/29 05:35:27;;;;;;;9.38;5.05;;;;;;;8.67;100.00;100447.88;5004211;28;20496;-55
2021/12/29 05:37:55;;;;;;;11.52;5.43;;;;;;;8.68;100.00;100451.41;5000523;28;20112;-48
2021/12/29 05:40:23;;;;;;;13.07;6.07;;;;;;;8.66;100.00;100454.41;5002968;28;20400;-49
2021/12/29 05:42:51;;;;;;;12.70;5.60;;;;;;;8.66;100.00;100459.84;5001867;28;20038;-48
2021/12/29 05:45:19;;;;;;;15.75;5.32;;;;;;;8.68;100.00;100451.41;5003596;28;20053;-49
2021/12/29 05:47:47;;;;;;;11.13;5.68;;;;;;;8.66;100.00;100459.84;5000205;28;20105;-49
2021/12/29 05:50:18;;;;;;;13.25;5.72;;;;;;;8.68;100.00;100456.84;5000263;28;20057;-48
2021/12/29 05:52:46;;;;;;;10.90;5.40;;;;;;;8.68;100.00;100465.84;5001005;28;20056;-48
2021/12/29 05:55:14;;;;;;;10.55;5.88;;;;;;;8.68;100.00;100463.13;5005003;28;20035;-48
2021/12/29 05:57:41;;;;;;;15.07;6.07;;;;;;;8.67;100.00;100461.47;5007326;28;20448;-45
2021/12/29 06:00:12;;;;;;;11.02;5.90;;;;;;;8.67;100.00;100458.75;5004256;28;20034;-47
2021/12/29 06:02:40;;;;;;;11.70;5.57;;;;;;;8.69;100.00;100458.50;5005752;28;20042;-49
2021/12/29 06:05:08;;;;;;;12.32;5.45;;;;;;;8.70;100.00;100468.28;5002370;28;20112;-47
2021/12/29 06:07:37;;;;;;;13.35;5.70;;;;;;;8.69;100.00;100463.94;5006030;28;20038;-48
2021/12/29 06:10:07;;;;;;;12.63;6.10;;;;;;;8.69;100.00;100463.94;5003225;28;20053;-45
2021/12/29 06:12:36;;;;;;;11.75;5.80;;;;;;;8.68;100.00;100468.56;5006158;28;20046;-48
2021/12/29 06:15:05;;;;;;;13.65;5.82;;;;;;;8.69;100.00;100474.78;5005991;28;20034;-47
2021/12/29 06:17:33;;;;;;;11.50;5.97;;;;;;;8.69;100.00;100472.91;5004044;28;20042;-46
2021/12/29 06:20:00;;;;;;;10.95;5.68;;;;;;;8.70;100.00;100471.00;4998338;28;20042;-47
2021/12/29 06:22:28;;;;;;;13.75;5.70;;;;;;;8.71;100.00;100484.31;5003678;28;20500;-48
2021/12/29 06:24:56;;;;;;;15.57;6.10;;;;;;;8.71;100.00;100494.38;5004071;28;20045;-46
2021/12/29 06:27:24;;;;;;;12.40;5.78;;;;;;;8.70;100.00;100506.28;5001548;28;20042;-48
2021/12/29 06:29:52;;;;;;;13.23;6.05;;;;;;;8.70;100.00;100509.00;5004726;28;20042;-46
2021/12/29 06:32:20;;;;;;;13.73;6.10;;;;;;;8.71;100.00;100521.53;5004054;28;20042;-48
2021/12/29 06:34:48;;;;;;;11.38;5.75;;;;;;;8.71;100.00;100516.09;5004058;28;20054;-46
2021/12/29 06:37:15;;;;;;;12.35;6.15;;;;;;;8.72;100.00;100517.72;5006579;28;20484;-47
2021/12/29 06:39:45;;;;;;;12.27;5.82;;;;;;;8.70;100.00;100511.72;4999880;28;20038;-47
2021/12/29 06:42:15;;;;;;;13.43;6.30;;;;;;;8.70;100.00;100507.09;4999816;28;20038;-47
2021/12/29 06:44:44;;;;;;;11.23;5.35;;;;;;;8.70;100.00;100512.53;5000650;28;20054;-49
2021/12/29 06:47:14;;;;;;;16.63;6.30;;;;;;;8.69;100.00;100513.63;5006335;28;20030;-50
2021/12/29 06:49:42;;;;;;;16.08;5.82;;;;;;;8.66;100.00;100519.59;4999398;28;20120;-45
2021/12/29 06:52:10;;;;;;;12.27;6.43;;;;;;;8.64;100.00;100521.75;5001130;28;20038;-45
2021/12/29 06:54:38;;;;;;;13.70;6.70;;;;;;;8.62;100.00;100523.09;5001405;28;20568;-47
2021/12/29 06:57:06;;;;;;;13.55;6.90;;;;;;;8.63;100.00;100524.72;5005203;28;20031;-48
2021/12/29 06:59:34;;;;;;;13.70;6.13;;;;;;;8.65;100.00;100533.44;5005115;28;20038;-48
2021/12/29 07:02:02;;;;;;;10.93;6.03;;;;;;;8.69;100.00;100537.28;5003906;28;20103;-47
2021/12/29 07:04:30;;;;;;;13.18;6.55;;;;;;;8.69;100.00;100548.13;5001008;28;20061;-45
2021/12/29 07:06:57;;;;;;;12.90;6.35;;;;;;;8.69;100.00;100545.41;5003685;28;20038;-46
2021/12/29 07:09:25;;;;;;;11.55;5.70;;;;;;;8.69;100.00;100539.97;5002988;28;20050;-46
2021/12/29 07:11:53;;;;;;;14.25;6.43;;;;;;;8.69;100.00;100546.22;5005006;28;21847;-46
2021/12/29 07:14:23;;;;;;;14.82;6.20;;;;;;;8.69;100.00;100551.66;5003616;28;20089;-48
2021/12/29 07:16:51;;;;;;;12.88;6.20;;;;;;;8.70;100.00;100550.56;5001980;28;20125;-46
2021/12/29 07:19:20;;;;;;;16.15;6.80;;;;;;;8.71;100.00;100563.09;4998784;28;20045;-47
2021/12/29 07:21:49;;;;;;;13.27;6.40;;;;;;;8.73;100.00;100568.25;5001486;28;20228;-47
2021/12/29 07:24:17;;;;;;;8.70;5.40;;;;;;;8.73;100.00;100576.38;5003811;28;20489;-51
2021/12/29 07:26:46;;;;;;;13.40;6.38;;;;;;;8.74;100.00;100575.31;5002711;28;20042;-51
2021/12/29 07:29:16;;;;;;;14.40;6.95;;;;;;;8.76;100.00;100578.59;5001870;28;20100;-49
2021/12/29 07:31:44;;;;;;;14.02;6.22;;;;;;;8.74;100.00;100575.31;5001544;28;20109;-47
2021/12/29 07:34:22;;;;;;;14.00;6.90;;;;;;;8.73;100.00;100582.66;5002306;28;20073;-50
2021/12/29 07:36:50;;;;;;;12.73;6.25;;;;;;;8.72;100.00;100577.47;5002373;28;20043;-49
2021/12/29 07:39:18;;;;;;;14.95;6.30;;;;;;;8.73;100.00;100587.25;5000725;28;20033;-50
2021/12/29 07:41:47;;;;;;;13.05;6.40;;;;;;;8.75;100.00;100590.53;5001245;28;20057;-51
2021/12/29 07:44:21;;;;;;;13.40;6.40;;;;;;;8.73;100.00;100600.84;5008375;28;20046;-50
2021/12/29 07:46:53;;;;;;;15.40;6.63;;;;;;;8.72;100.00;100600.03;5001628;28;20053;-47
2021/12/29 07:49:24;;;;;;;13.68;5.93;;;;;;;8.72;100.00;100596.50;5001132;28;20049;-46
2021/12/29 07:51:52;;;;;;;12.05;5.80;;;;;;;8.73;100.00;100595.41;4999453;28;20157;-46
2021/12/29 07:54:21;;;;;;;14.82;6.50;;;;;;;8.76;100.00;100599.53;4999268;28;20393;-48
2021/12/29 07:56:51;;;;;;;12.30;6.05;;;;;;;8.76;100.00;100600.34;5001278;28;20053;-50
2021/12/29 07:59:19;;;;;;;12.95;5.90;;;;;;;8.76;100.00;100594.91;5002287;28;20036;-45
2021/12/29 08:01:50;;;;;;;15.23;6.10;;;;;;;8.76;100.00;100594.91;5001064;28;20137;-50
2021/12/29 08:04:19;;;;;;;10.70;5.85;;;;;;;8.76;100.00;100596.81;5001681;28;20117;-48
2021/12/29 08:06:47;;;;;;;12.55;5.40;;;;;;;8.74;100.00;100586.19;5002264;28;20042;-50
2021/12/29 08:09:15;;;;;;;9.93;5.22;;;;;;;8.74;100.00;100586.19;4999014;28;20046;-48
2021/12/29 08:11:43;;;;;;;18.13;5.35;;;;;;;8.76;100.00;100589.47;5002913;28;20054;-49
2021/12/29 08:14:16;;;;;;;13.23;5.70;;;;;;;8.77;100.00;100595.72;5002463;28;20056;-47
2021/12/29 08:16:44;;;;;;;10.85;5.18;;;;;;;8.76;100.00;100597.63;5000036;28;20129;-46
2021/12/29 08:19:12;;;;;;;11.93;5.07;;;;;;;8.79;100.00;100594.38;4997515;28;20477;-47
2021/12/29 08:21:42;;;;;;;12.93;6.80;;;;;;;8.80;100.00;100597.91;5000430;28;20142;-48
2021/12/29 08:24:09;;;;;;;11.65;5.65;;;;;;;8.79;100.00;100602.53;5000572;28;20042;-49
2021/12/29 08:26:40;;;;;;;11.38;5.03;;;;;;;8.79;100.00;100599.81;4998311;28;20045;-50
2021/12/29 08:29:10;;;;;;;9.55;4.85;;;;;;;8.79;100.00;100599.00;5001155;28;20057;-48
2021/12/29 08:31:37;;;;;;;9.85;4.45;;;;;;;8.79;100.00;100599.81;5003530;28;20133;-47
2021/12/29 08:34:05;;;;;;;16.90;5.63;;;;;;;8.78;100.00;100592.75;5000602;28;20049;-49
2021/12/29 08:36:33;;;;;;;8.90;3.78;;;;;;;8.79;100.00;100597.09;4996660;28;20045;-49
2021/12/29 08:39:00;;;;;;;10.52;5.30;;;;;;;8.79;100.00;100594.38;5000207;28;20045;-48
2021/12/29 08:41:28;;;;;;;11.38;5.10;;;;;;;8.79;100.00;100610.66;4993035;28;20030;-48
2021/12/29 08:43:58;;;;;;;14.00;4.97;;;;;;;8.81;100.00;100604.97;5004698;28;20042;-50
2021/12/29 08:46:30;;;;;;;9.82;4.53;;;;;;;8.80;100.00;100612.28;5004332;28;20053;-48
2021/12/29 08:48:58;;;;;;;11.05;4.80;;;;;;;8.80;100.00;100604.13;4997814;28;20408;-49
2021/12/29 08:51:25;;;;;;;10.75;5.00;;;;;;;8.82;100.00;100615.56;5017201;28;20129;-48
2021/12/29 08:53:54;;;;;;;10.48;4.80;;;;;;;8.83;100.00;100621.84;4998727;28;20136;-49
2021/12/29 08:56:27;;;;;;;12.65;4.50;;;;;;;8.84;100.00;100616.13;5000489;28;20038;-47
2021/12/29 08:58:55;;;;;;;10.60;4.55;;;;;;;8.84;100.00;100610.69;4998640;28;20042;-49
2021/12/29 09:01:26;;;;;;;15.95;5.70;;;;;;;8.86;100.00;100610.44;4997721;28;20538;-47
2021/12/29 09:03:54;;;;;;;12.65;4.72;;;;;;;8.88;100.00;100609.09;5000497;28;20039;-47
2021/12/29 09:06:26;;;;;;;13.45;5.03;;;;;;;8.89;100.00;100618.88;4997708;28;20461;-49
2021/12/29 09:08:54;;;;;;;13.82;4.90;;;;;;;8.91;100.00;100614.00;5003213;28;20046;-47
2021/12/29 09:11:22;;;;;;;9.52;4.22;;;;;;;8.91;100.00;100615.91;4999735;28;20223;-47
2021/12/29 09:13:50;;;;;;;10.07;4.05;;;;;;;8.91;100.00;100615.91;4998050;28;20054;-48
2021/12/29 09:16:20;;;;;;;21.08;5.45;;;;;;;8.91;100.00;100614.00;5003291;28;20057;-48
2021/12/29 09:18:51;;;;;;;11.70;4.30;;;;;;;8.91;100.00;100603.13;5007385;28;20046;-48
2021/12/29 09:21:19;;;;;;;15.73;5.78;;;;;;;8.97;100.00;100609.41;4998231;28;20073;-50
2021/12/29 09:23:50;;;;;;;14.65;5.47;;;;;;;8.98;100.00;100604.81;5000667;28;20457;-49
2021/12/29 09:26:19;;;;;;;22.92;6.18;;;;;;;9.10;100.00;100605.44;4992567;28;20042;-48
2021/12/29 09:28:48;;;;;;;14.68;4.70;;;;;;;9.10;100.00;100606.25;5003991;28;20042;-44
2021/12/29 09:31:18;;;;;;;13.48;4.45;;;;;;;9.03;100.00;100591.25;5006939;28;20046;-45
2021/12/29 09:33:49;;;;;;;12.05;4.47;;;;;;;9.03;100.00;100593.97;4995919;28;20053;-43
2021/12/29 09:36:17;;;;;;;12.57;5.30;;;;;;;9.04;100.00;100590.16;4998523;28;20052;-42
2021/12/29 09:38:46;;;;;;;16.08;5.35;;;;;;;9.09;100.00;100590.19;5010056;28;20490;-42
2021/12/29 09:41:15;;;;;;;12.95;5.25;;;;;;;9.12;100.00;100586.97;4997517;28;20038;-44
2021/12/29 09:43:45;;;;;;;10.70;4.53;;;;;;;9.08;100.00;100592.09;4996250;28;20389;-43
2021/12/29 09:46:17;;;;;;;15.73;5.63;;;;;;;9.17;100.00;100595.13;4997092;28;20373;-43
2021/12/29 09:48:45;;;;;;;14.15;5.38;;;;;;;9.22;100.00;100589.72;4996030;28;20050;-44
2021/12/29 09:51:17;;;;;;;12.60;5.10;;;;;;;9.19;100.00;100598.41;4996474;28;20053;-48
2021/12/29 09:53:45;;;;;;;14.02;5.25;;;;;;;9.20;100.00;100599.22;4995291;28;20489;-45
2021/12/29 09:56:13;;;;;;;15.10;5.28;;;;;;;9.23;100.00;100591.34;4995834;28;20496;-43
2021/12/29 09:58:41;;;;;;;11.18;4.97;;;;;;;9.20;100.00;100588.34;4995506;28;20478;-44
2021/12/29 10:01:11;;;;;;;10.18;4.50;;;;;;;9.17;100.00;100590.50;5008222;28;20397;-44
2021/12/29 10:03:44;;;;;;;13.45;5.10;;;;;;;9.18;100.00;100585.88;5014902;28;20064;-44
2021/12/29 10:06:14;;;;;;;16.40;5.80;;;;;;;9.21;100.00;100588.06;4999505;28;20452;-45
2021/12/29 10:08:49;;;;;;;11.45;5.22;;;;;;;9.20;100.00;100591.06;4998064;28;20462;-44
2021/12/29 10:11:19;;;;;;;16.15;5.45;;;;;;;9.24;100.00;100593.00;4997236;28;20045;-44
2021/12/29 10:13:51;;;;;;;12.15;5.28;;;;;;;9.24;100.00;100587.56;5010514;28;20054;-47
2021/12/29 10:16:24;;;;;;;9.90;4.97;;;;;;;9.24;100.00;100595.72;5007669;28;20050;-44
2021/12/29 10:19:06;;;;;;;8.73;4.90;;;;;;;9.23;100.00;100598.69;4995487;28;20050;-46
2021/12/29 10:21:45;;;;;;;13.27;5.15;;;;;;;9.25;100.00;100599.25;5000269;28;20037;-45
2021/12/29 10:24:13;;;;;;;18.02;5.25;;;;;;;9.31;100.00;100588.13;5005505;28;20042;-45
2021/12/29 10:26:50;;;;;;;14.45;5.55;;;;;;;9.38;100.00;100586.00;4995011;28;20042;-51
2021/12/29 10:29:19;;;;;;;13.55;5.80;;;;;;;9.44;100.00;100583.28;4995280;28;20042;-45
2021/12/29 10:32:02;;;;;;;15.00;5.80;;;;;;;9.44;100.00;100573.22;4994059;28;20056;-44
2021/12/29 10:34:32;;;;;;;13.77;5.35;;;;;;;9.50;100.00;100563.16;5004220;28;20061;-50
2021/12/29 10:37:07;;;;;;;11.35;4.65;;;;;;;9.44;100.00;100550.66;5002793;28;20053;-46
2021/12/29 10:39:41;;;;;;;9.00;5.65;;;;;;;9.31;100.00;100550.06;4994424;28;20035;-44
2021/12/29 10:42:14;;;;;;;14.13;5.70;;;;;;;9.23;100.00;100561.44;4997995;28;20053;-51
2021/12/29 10:44:51;;;;;;;11.27;5.32;;;;;;;9.18;100.00;100556.81;4995054;28;20629;-47
2021/12/29 10:47:24;;;;;;;11.45;5.38;;;;;;;9.14;100.00;100557.63;4994725;28;20042;-45
2021/12/29 10:50:05;;;;;;;12.40;5.63;;;;;;;9.13;100.00;100578.53;4994399;28;20039;-46
2021/12/29 10:52:39;;;;;;;11.10;5.32;;;;;;;9.12;100.00;100570.66;4994511;28;20046;-45
2021/12/29 10:55:10;;;;;;;10.77;4.10;;;;;;;9.16;100.00;100566.31;5002449;28;20052;-45
2021/12/29 10:57:38;;;;;;;15.90;4.88;;;;;;;9.25;100.00;100553.84;4996229;28;20473;-46
2021/12/29 11:00:08;;;;;;;16.20;4.95;;;;;;;9.41;100.00;100554.72;4996666;28;20038;-46
2021/12/29 11:02:36;;;;;;;13.82;5.05;;;;;;;9.47;100.00;100561.00;4994866;28;20038;-47
2021/12/29 11:05:09;;;;;;;15.52;5.32;;;;;;;9.57;100.00;100563.75;4994226;28;20113;-48
2021/12/29 11:07:38;;;;;;;15.63;4.85;;;;;;;9.66;100.00;100564.03;4994264;28;20050;-48
2021/12/29 11:10:16;;;;;;;15.65;4.88;;;;;;;9.70;100.00;100568.69;4996691;28;20121;-45
2021/12/29 11:12:44;;;;;;;14.73;4.78;;;;;;;9.64;100.00;100577.09;4993912;28;20412;-45
2021/12/29 11:15:21;;;;;;;10.35;4.50;;;;;;;9.74;100.00;100588.84;4994998;28;20404;-46
2021/12/29 11:17:50;;;;;;;10.63;4.63;;;;;;;9.61;100.00;100589.31;4994219;28;20049;-48
2021/12/29 11:20:20;;;;;;;13.63;4.78;;;;;;;9.52;100.00;100582.75;4993809;28;20034;-47
2021/12/29 11:22:48;;;;;;;16.20;5.25;;;;;;;9.71;100.00;100580.38;4993764;28;20523;-46
2021/12/29 11:25:30;;;;;;;10.20;4.40;;;;;;;9.64;100.00;100583.34;4994038;28;20042;-44
2021/12/29 11:27:58;;;;;;;14.85;4.97;;;;;;;9.72;100.00;100577.41;5004076;28;20045;-44
2021/12/29 11:30:26;;;;;;;10.85;4.25;;;;;;;9.72;100.00;100579.31;5012110;28;20064;-44
2021/12/29 11:33:07;;;;;;;13.07;4.45;;;;;;;9.72;100.00;100574.69;4994115;28;20057;-44
2021/12/29 11:35:44;;;;;;;13.25;4.32;;;;;;;9.96;100.00;100571.47;4993630;28;20042;-46
2021/12/29 11:38:11;;;;;;;15.30;4.78;;;;;;;9.98;100.00;100567.38;4994294;28;20056;-44
2021/12/29 11:40:41;;;;;;;12.45;4.43;;;;;;;9.99;100.00;100557.31;4995991;28;20043;-47
2021/12/29 11:43:09;;;;;;;9.85;4.28;;;;;;;9.86;100.00;100563.25;5012673;28;20045;-45